Time;durP1;ratioP1;P1;durP2;ratioP2;P2;SDS_P1;SDS_P2;PMS_P1;PMS_P2;Temp;Humidity;BMP_temperature;BMP_pressure;BME280_temperature;BME280_humidity;BME280_pressure;Samples;Min_cycle;Max_cycle;Signal;HPM_P1;HPM_P2
2023/03/11 00:00:47;;;;;;;1.48;0.73;;;7.60;99.90;;;;;;4992242;28;20192;-75
2023/03/11 00:03:18;;;;;;;2.00;1.00;;;7.60;99.90;;;;;;4979685;28;20216;-75
2023/03/11 00:05:48;;;;;;;2.30;1.20;;;7.60;99.90;;;;;;5001700;28;20209;-74
2023/03/11 00:08:19;;;;;;;1.08;0.98;;;7.60;99.90;;;;;;4997414;28;20862;-74
2023/03/11 00:10:50;;;;;;;1.80;0.80;;;7.60;99.90;;;;;;4990732;28;20193;-75
2023/03/11 00:13:19;;;;;;;1.98;0.90;;;7.60;99.90;;;;;;4985654;28;20311;-74
2023/03/11 00:15:50;;;;;;;4.63;1.20;;;7.60;99.90;;;;;;4983009;28;20213;-75
2023/03/11 00:18:19;;;;;;;1.42;0.88;;;7.60;99.90;;;;;;4992982;28;20304;-74
2023/03/11 00:20:49;;;;;;;2.50;1.60;;;7.60;99.90;;;;;;4983746;28;20227;-76
2023/03/11 00:23:17;;;;;;;1.50;1.10;;;7.50;99.90;;;;;;5000874;28;20315;-75
2023/03/11 00:25:46;;;;;;;1.10;1.00;;;7.50;99.90;;;;;;4999235;28;20217;-75
2023/03/11 00:28:15;;;;;;;1.85;0.90;;;7.50;99.90;;;;;;4991976;28;20234;-77
2023/03/11 00:30:45;;;;;;;2.58;0.90;;;7.50;99.90;;;;;;4993015;28;20224;-74
2023/03/11 00:33:15;;;;;;;1.40;0.88;;;7.50;99.90;;;;;;4992896;28;20225;-73
2023/03/11 00:35:44;;;;;;;1.80;1.10;;;7.50;99.90;;;;;;4989013;28;20214;-74
2023/03/11 00:38:16;;;;;;;1.20;1.02;;;7.50;99.90;;;;;;4978016;28;20279;-75
2023/03/11 00:40:47;;;;;;;2.22;0.98;;;7.50;99.90;;;;;;4993500;28;20192;-74
2023/03/11 00:43:16;;;;;;;2.13;0.80;;;7.50;99.90;;;;;;4984638;28;20718;-75
2023/03/11 00:45:45;;;;;;;3.53;1.20;;;7.50;99.90;;;;;;4997719;28;20216;-76
2023/03/11 00:48:14;;;;;;;1.23;1.13;;;7.50;99.90;;;;;;5001680;28;20722;-75
2023/03/11 00:50:43;;;;;;;3.25;1.20;;;7.50;99.90;;;;;;4990583;28;20533;-74
2023/03/11 00:53:12;;;;;;;2.10;0.70;;;7.50;99.90;;;;;;4990719;28;20282;-75
2023/03/11 00:55:41;;;;;;;1.45;0.93;;;7.50;99.90;;;;;;4992107;28;20251;-75
2023/03/11 00:58:12;;;;;;;1.88;1.25;;;7.50;99.90;;;;;;4998781;28;20249;-74
2023/03/11 01:00:50;;;;;;;2.97;1.10;;;7.50;99.90;;;;;;4988481;28;20201;-73
2023/03/11 01:03:18;;;;;;;5.07;1.10;;;7.50;99.90;;;;;;4983797;28;20225;-75
2023/03/11 01:05:46;;;;;;;2.45;0.85;;;7.50;99.90;;;;;;4988804;28;20570;-75
2023/03/11 01:08:15;;;;;;;1.65;1.08;;;7.50;99.90;;;;;;5001296;28;20635;-74
2023/03/11 01:10:44;;;;;;;3.60;1.08;;;7.50;99.90;;;;;;5002366;28;20693;-74
2023/03/11 01:13:13;;;;;;;1.20;0.88;;;7.50;99.90;;;;;;5000479;28;20266;-73
2023/03/11 01:15:41;;;;;;;3.15;0.95;;;7.50;99.90;;;;;;4987763;28;20222;-76
2023/03/11 01:18:10;;;;;;;2.45;0.90;;;7.50;99.90;;;;;;4991859;28;20227;-75
2023/03/11 01:20:39;;;;;;;2.25;0.90;;;7.50;99.90;;;;;;4985692;28;20198;-76
2023/03/11 01:23:08;;;;;;;4.05;1.00;;;7.50;99.90;;;;;;5000560;28;20217;-73
2023/03/11 01:25:37;;;;;;;2.35;0.63;;;7.40;99.90;;;;;;4989874;28;20201;-73
2023/03/11 01:28:07;;;;;;;1.38;1.10;;;7.40;99.90;;;;;;4999111;28;20272;-75
2023/03/11 01:30:38;;;;;;;1.30;1.20;;;7.40;99.90;;;;;;4998781;28;20226;-75
2023/03/11 01:33:07;;;;;;;1.15;0.80;;;7.40;99.90;;;;;;4975345;28;20219;-75
2023/03/11 01:35:36;;;;;;;2.15;1.40;;;7.40;99.90;;;;;;4996283;28;20278;-74
2023/03/11 01:38:04;;;;;;;0.90;0.90;;;7.40;99.90;;;;;;4977143;28;20219;-75
2023/03/11 01:40:35;;;;;;;3.42;0.90;;;7.40;99.90;;;;;;4978619;28;20272;-75
2023/03/11 01:43:53;;;;;;;2.70;1.02;;;7.40;99.90;;;;;;5000944;28;20197;-75
2023/03/11 01:46:33;;;;;;;1.48;0.90;;;7.40;99.90;;;;;;4979456;28;20202;-74
2023/03/11 01:49:04;;;;;;;2.65;1.30;;;7.40;99.90;;;;;;4982657;28;20245;-75
2023/03/11 01:51:38;;;;;;;1.77;1.20;;;7.40;99.90;;;;;;4992883;28;20196;-74
2023/03/11 01:54:12;;;;;;;1.77;0.88;;;7.40;99.90;;;;;;4994079;28;20235;-74
2023/03/11 01:56:42;;;;;;;2.85;1.08;;;7.40;99.90;;;;;;4984714;28;20589;-75
2023/03/11 01:59:15;;;;;;;1.15;1.00;;;7.40;99.90;;;;;;4976177;28;20610;-75
2023/03/11 02:01:52;;;;;;;2.28;0.82;;;7.40;99.90;;;;;;4982084;28;20199;-75
2023/03/11 02:04:24;;;;;;;1.90;0.80;;;7.40;99.90;;;;;;5001880;28;20232;-76
2023/03/11 02:06:55;;;;;;;1.27;0.98;;;7.40;99.90;;;;;;5002918;28;20206;-76
2023/03/11 02:09:25;;;;;;;3.22;1.00;;;7.40;99.90;;;;;;4975065;28;20341;-74
2023/03/11 02:11:55;;;;;;;2.25;0.80;;;7.40;99.90;;;;;;4985651;28;20627;-74
2023/03/11 02:14:24;;;;;;;1.80;1.23;;;7.40;99.90;;;;;;4999918;28;20225;-74
2023/03/11 02:16:56;;;;;;;1.60;1.00;;;7.40;99.90;;;;;;4985498;28;20220;-73
2023/03/11 02:19:38;;;;;;;2.88;1.23;;;7.40;99.90;;;;;;4990885;28;20228;-76
2023/03/11 02:22:08;;;;;;;0.70;0.70;;;7.30;99.90;;;;;;4990076;28;20207;-76
2023/03/11 02:24:44;;;;;;;1.92;0.95;;;7.30;99.90;;;;;;4985647;28;20228;-75
2023/03/11 02:27:16;;;;;;;1.20;0.77;;;7.30;99.90;;;;;;5003220;28;20213;-74
2023/03/11 02:29:48;;;;;;;1.00;0.60;;;7.30;99.90;;;;;;4995973;28;20235;-75
2023/03/11 02:32:19;;;;;;;2.35;0.98;;;7.30;99.90;;;;;;4994174;28;20203;-76
2023/03/11 02:34:47;;;;;;;1.33;0.85;;;7.30;99.90;;;;;;5001724;28;20279;-74
2023/03/11 02:37:17;;;;;;;2.30;0.90;;;7.30;99.90;;;;;;5002600;28;20268;-75
2023/03/11 02:39:54;;;;;;;0.88;0.47;;;7.30;99.90;;;;;;4983062;28;20671;-74
2023/03/11 02:42:26;;;;;;;0.93;0.63;;;7.30;99.90;;;;;;4999476;28;20207;-75
2023/03/11 02:44:59;;;;;;;0.75;0.50;;;7.30;99.90;;;;;;5000503;28;20205;-74
2023/03/11 02:47:29;;;;;;;1.77;0.65;;;7.30;99.90;;;;;;4990895;28;20591;-73
2023/03/11 02:49:58;;;;;;;0.93;0.82;;;7.30;99.90;;;;;;5001709;28;20204;-75
2023/03/11 02:52:28;;;;;;;1.20;0.75;;;7.30;99.90;;;;;;4975658;28;20201;-74
2023/03/11 02:54:56;;;;;;;3.10;0.68;;;7.30;99.90;;;;;;4975257;28;20227;-75
2023/03/11 02:57:26;;;;;;;1.52;0.80;;;7.30;99.90;;;;;;4993667;28;20220;-74
2023/03/11 02:59:55;;;;;;;1.30;0.80;;;7.30;99.90;;;;;;4982048;28;20196;-73
2023/03/11 03:02:23;;;;;;;1.80;0.93;;;7.30;99.90;;;;;;5002678;28;20292;-74
2023/03/11 03:04:53;;;;;;;0.80;0.70;;;7.30;99.90;;;;;;4990191;28;20197;-76
2023/03/11 03:07:24;;;;;;;1.50;1.00;;;7.30;99.90;;;;;;4991296;28;20627;-75
2023/03/11 03:09:55;;;;;;;3.42;0.80;;;7.30;99.90;;;;;;4995511;28;20693;-74
2023/03/11 03:12:24;;;;;;;1.40;1.10;;;7.30;99.90;;;;;;5000762;28;20203;-75
2023/03/11 03:14:54;;;;;;;1.58;0.85;;;7.30;99.90;;;;;;4992963;28;20199;-75
2023/03/11 03:17:22;;;;;;;1.35;0.88;;;7.20;99.90;;;;;;5001157;28;20737;-74
2023/03/11 03:19:51;;;;;;;1.40;0.88;;;7.30;99.90;;;;;;4997476;28;20719;-74
2023/03/11 03:22:19;;;;;;;1.13;0.60;;;7.20;99.90;;;;;;4979535;28;20309;-74
2023/03/11 03:24:48;;;;;;;1.00;0.80;;;7.20;99.90;;;;;;4996599;28;20270;-74
2023/03/11 03:27:17;;;;;;;1.92;0.60;;;7.20;99.90;;;;;;4996597;28;20225;-75
2023/03/11 03:29:46;;;;;;;1.30;0.90;;;7.20;99.90;;;;;;4994857;28;20738;-75
2023/03/11 03:32:16;;;;;;;1.40;0.80;;;7.20;99.90;;;;;;5000190;28;20193;-74
2023/03/11 03:34:44;;;;;;;1.73;1.10;;;7.30;99.90;;;;;;4995712;28;20225;-74
2023/03/11 03:37:12;;;;;;;1.77;0.82;;;7.30;99.90;;;;;;4987550;28;20750;-74
2023/03/11 03:39:41;;;;;;;1.48;0.90;;;7.20;99.90;;;;;;4972914;28;20574;-75
2023/03/11 03:42:11;;;;;;;4.45;0.77;;;7.20;99.90;;;;;;4986780;28;20538;-76
2023/03/11 03:44:41;;;;;;;1.20;0.90;;;7.20;99.90;;;;;;4979403;28;20228;-75
2023/03/11 03:47:10;;;;;;;0.70;0.60;;;7.20;99.90;;;;;;4997313;28;20221;-76
2023/03/11 03:49:40;;;;;;;2.00;1.27;;;7.20;99.90;;;;;;4997711;28;20264;-74
2023/03/11 03:52:09;;;;;;;1.98;1.02;;;7.20;99.90;;;;;;4975818;28;20202;-75
2023/03/11 03:54:39;;;;;;;1.40;0.80;;;7.20;99.90;;;;;;4987957;28;20308;-75
2023/03/11 03:57:07;;;;;;;4.10;0.90;;;7.20;99.90;;;;;;4999064;28;20222;-73
2023/03/11 03:59:43;;;;;;;1.20;1.10;;;7.20;99.90;;;;;;4978101;28;20235;-75
2023/03/11 04:02:12;;;;;;;2.15;1.10;;;7.20;99.90;;;;;;5002685;28;20198;-75
2023/03/11 04:04:42;;;;;;;1.15;0.80;;;7.20;99.90;;;;;;4988694;28;20226;-76
2023/03/11 04:07:11;;;;;;;2.88;1.15;;;7.20;99.90;;;;;;5001787;28;20225;-73
2023/03/11 04:09:40;;;;;;;1.10;0.90;;;7.20;99.90;;;;;;4995948;28;20223;-76
2023/03/11 04:12:13;;;;;;;1.02;0.65;;;7.10;99.90;;;;;;4996852;28;20296;-74
2023/03/11 04:14:42;;;;;;;1.60;0.65;;;7.10;99.90;;;;;;4974987;28;20275;-76
2023/03/11 04:17:11;;;;;;;1.27;0.70;;;7.10;99.90;;;;;;4995208;28;20689;-75
2023/03/11 04:19:42;;;;;;;1.15;0.93;;;7.10;99.90;;;;;;4986220;28;20230;-75
2023/03/11 04:22:11;;;;;;;1.77;0.93;;;7.10;99.90;;;;;;4996928;28;20200;-76
2023/03/11 04:24:40;;;;;;;1.10;1.00;;;7.10;99.90;;;;;;4998572;28;20241;-74
2023/03/11 04:27:08;;;;;;;1.20;0.70;;;7.10;99.90;;;;;;5000464;28;20217;-76
2023/03/11 04:29:37;;;;;;;0.90;0.70;;;7.10;99.90;;;;;;4983654;28;20222;-74
2023/03/11 04:32:06;;;;;;;2.58;0.82;;;7.10;99.90;;;;;;5000975;28;20301;-74
2023/03/11 04:34:35;;;;;;;1.02;0.75;;;7.10;99.90;;;;;;5004208;28;20487;-75
2023/03/11 04:37:05;;;;;;;1.10;0.85;;;7.10;99.90;;;;;;4997005;28;20218;-75
2023/03/11 04:39:36;;;;;;;1.13;0.70;;;7.10;99.90;;;;;;4993376;28;20226;-76
2023/03/11 04:42:05;;;;;;;1.20;1.00;;;7.10;99.90;;;;;;5001466;28;20201;-74
2023/03/11 04:44:35;;;;;;;1.35;0.60;;;7.10;99.90;;;;;;4993966;28;20275;-74
2023/03/11 04:47:04;;;;;;;1.10;0.90;;;7.10;99.90;;;;;;5001896;28;20219;-75
2023/03/11 04:49:33;;;;;;;2.67;1.35;;;7.10;99.90;;;;;;4981784;28;20223;-74
2023/03/11 04:52:01;;;;;;;1.17;0.77;;;7.10;99.90;;;;;;4998304;28;20192;-74
2023/03/11 04:54:32;;;;;;;2.55;0.95;;;7.10;99.90;;;;;;4996729;28;20302;-75
2023/03/11 04:57:00;;;;;;;1.42;0.93;;;7.10;99.90;;;;;;4987664;28;20209;-75
2023/03/11 04:59:29;;;;;;;1.35;0.80;;;7.10;99.90;;;;;;4976152;28;20584;-74
2023/03/11 05:01:57;;;;;;;1.70;1.10;;;7.10;99.90;;;;;;4984457;28;20230;-76
2023/03/11 05:04:26;;;;;;;1.00;0.80;;;7.10;99.90;;;;;;4996591;28;20233;-73
2023/03/11 05:06:54;;;;;;;1.15;1.00;;;7.10;99.90;;;;;;5002702;28;20228;-75
2023/03/11 05:09:25;;;;;;;1.27;0.80;;;7.00;99.90;;;;;;4985168;28;20237;-75
2023/03/11 05:11:55;;;;;;;1.05;0.80;;;7.00;99.90;;;;;;4999889;28;20296;-75
2023/03/11 05:14:25;;;;;;;0.90;0.57;;;7.00;99.90;;;;;;4986406;28;20236;-74
2023/03/11 05:16:54;;;;;;;1.35;0.70;;;7.00;99.90;;;;;;4993727;28;20618;-75
2023/03/11 05:19:33;;;;;;;0.75;0.63;;;7.00;99.90;;;;;;4976886;28;20232;-75
2023/03/11 05:22:08;;;;;;;1.95;0.80;;;7.00;99.90;;;;;;5000090;28;20205;-73
2023/03/11 05:24:37;;;;;;;1.77;0.70;;;7.00;99.90;;;;;;4990882;28;20625;-76
2023/03/11 05:27:07;;;;;;;1.67;0.90;;;7.00;99.90;;;;;;4984891;28;20264;-75
2023/03/11 05:29:37;;;;;;;1.00;0.80;;;7.00;99.90;;;;;;5001362;28;20688;-73
2023/03/11 05:32:09;;;;;;;3.15;0.77;;;7.00;99.90;;;;;;4986698;28;20559;-74
2023/03/11 05:34:37;;;;;;;1.60;0.95;;;7.00;99.90;;;;;;4986741;28;20340;-72
2023/03/11 05:37:07;;;;;;;0.77;0.40;;;7.00;99.90;;;;;;4980991;28;20256;-75
2023/03/11 05:39:36;;;;;;;2.05;0.98;;;7.00;99.90;;;;;;4996418;28;20222;-75
2023/03/11 05:42:07;;;;;;;0.98;0.70;;;7.00;99.90;;;;;;4993047;28;20203;-75
2023/03/11 05:44:36;;;;;;;1.35;0.80;;;7.00;99.90;;;;;;4995747;28;20225;-76
2023/03/11 05:47:05;;;;;;;1.35;1.05;;;7.00;99.90;;;;;;4989921;28;20252;-73
2023/03/11 05:49:35;;;;;;;1.00;0.80;;;7.00;99.90;;;;;;4990888;28;20653;-73
2023/03/11 05:52:04;;;;;;;1.83;1.27;;;7.00;99.90;;;;;;4998251;28;20217;-75
2023/03/11 05:54:34;;;;;;;1.50;0.57;;;7.00;99.90;;;;;;5001738;28;20974;-73
2023/03/11 05:57:03;;;;;;;0.90;0.80;;;6.90;99.90;;;;;;5003386;28;20276;-74
2023/03/11 05:59:36;;;;;;;0.85;0.73;;;6.90;99.90;;;;;;4980438;28;20279;-75
2023/03/11 06:02:05;;;;;;;1.70;0.70;;;6.90;99.90;;;;;;4996214;28;20285;-74
2023/03/11 06:04:34;;;;;;;1.30;1.20;;;6.90;99.90;;;;;;5002094;28;20340;-75
2023/03/11 06:07:03;;;;;;;1.13;0.65;;;6.90;99.90;;;;;;5003140;28;20566;-74
2023/03/11 06:09:36;;;;;;;1.70;0.93;;;6.90;99.90;;;;;;4990246;28;20229;-75
2023/03/11 06:12:09;;;;;;;1.33;0.70;;;6.90;99.90;;;;;;4998497;28;20198;-76
2023/03/11 06:14:58;;;;;;;2.55;1.20;;;6.90;99.90;;;;;;4984643;28;20327;-75
2023/03/11 06:17:27;;;;;;;1.50;0.73;;;6.90;99.90;;;;;;4986990;28;20216;-76
2023/03/11 06:19:58;;;;;;;1.30;0.98;;;6.90;99.90;;;;;;4995864;28;20758;-75
2023/03/11 06:22:26;;;;;;;1.20;1.10;;;6.90;99.90;;;;;;5001577;28;20201;-74
2023/03/11 06:24:55;;;;;;;1.60;1.00;;;6.90;99.90;;;;;;4985742;28;20506;-74
2023/03/11 06:27:24;;;;;;;1.02;0.95;;;6.90;99.90;;;;;;4992797;28;20634;-76
2023/03/11 06:29:54;;;;;;;1.13;0.77;;;6.90;99.90;;;;;;4979108;28;20193;-74
2023/03/11 06:32:28;;;;;;;0.90;0.65;;;6.90;99.90;;;;;;4986531;28;20221;-75
2023/03/11 06:34:57;;;;;;;1.85;1.30;;;6.90;99.90;;;;;;4985629;28;20210;-75
2023/03/11 06:37:26;;;;;;;7.78;1.50;;;6.90;99.90;;;;;;5000297;28;20295;-75
2023/03/11 06:39:56;;;;;;;0.80;0.65;;;6.90;99.90;;;;;;4988619;28;20293;-75
2023/03/11 06:42:26;;;;;;;4.20;1.10;;;6.80;99.90;;;;;;4993435;28;20207;-76
2023/03/11 06:44:58;;;;;;;1.45;0.80;;;6.80;99.90;;;;;;4995739;28;20593;-75
2023/03/11 06:47:27;;;;;;;1.35;1.00;;;6.80;99.90;;;;;;4993073;28;20229;-76
2023/03/11 06:49:56;;;;;;;1.00;0.70;;;6.80;99.90;;;;;;4983005;28;20202;-75
2023/03/11 06:52:25;;;;;;;1.55;1.15;;;6.90;99.90;;;;;;4983055;28;20356;-74
2023/03/11 06:54:55;;;;;;;2.05;1.35;;;6.90;99.90;;;;;;4975717;28;20194;-76
2023/03/11 06:57:25;;;;;;;1.48;1.23;;;6.80;99.90;;;;;;4998796;28;20230;-74
2023/03/11 06:59:56;;;;;;;1.20;0.77;;;6.80;99.90;;;;;;4978332;28;20251;-73
2023/03/11 07:02:27;;;;;;;2.15;0.82;;;6.80;99.90;;;;;;4983202;28;20641;-76
2023/03/11 07:04:55;;;;;;;1.25;0.80;;;6.80;99.90;;;;;;5002397;28;20196;-75
2023/03/11 07:07:24;;;;;;;0.90;0.70;;;6.80;99.90;;;;;;4998018;28;20324;-75
2023/03/11 07:09:56;;;;;;;1.05;0.68;;;6.80;99.90;;;;;;4980046;28;20188;-74
2023/03/11 07:12:25;;;;;;;2.17;1.45;;;6.80;99.90;;;;;;4997477;28;20666;-73
2023/03/11 07:14:56;;;;;;;1.42;1.33;;;6.80;99.90;;;;;;4980719;28;20201;-75
2023/03/11 07:17:25;;;;;;;1.40;0.70;;;6.80;99.90;;;;;;4992939;28;20218;-76
2023/03/11 07:19:55;;;;;;;1.92;1.50;;;6.80;99.90;;;;;;4997730;28;20276;-76
2023/03/11 07:22:23;;;;;;;2.40;1.40;;;6.80;99.90;;;;;;4977380;28;20300;-74
2023/03/11 07:24:52;;;;;;;2.15;1.05;;;6.80;99.90;;;;;;4990707;28;20198;-73
2023/03/11 07:27:21;;;;;;;2.83;2.00;;;6.80;99.90;;;;;;4990174;28;20221;-76
2023/03/11 07:29:49;;;;;;;2.28;1.58;;;6.80;99.90;;;;;;4993508;28;21025;-76
2023/03/11 07:32:18;;;;;;;1.58;0.90;;;6.80;99.90;;;;;;4982517;28;20231;-74
2023/03/11 07:34:46;;;;;;;0.82;0.77;;;6.80;99.90;;;;;;4984070;28;20594;-74
2023/03/11 07:37:16;;;;;;;1.10;0.88;;;6.80;99.90;;;;;;5002445;28;20231;-75
2023/03/11 07:39:45;;;;;;;2.80;0.90;;;6.80;99.90;;;;;;4997008;28;20639;-74
2023/03/11 07:42:13;;;;;;;2.03;0.95;;;6.70;99.90;;;;;;5002429;28;20202;-74
2023/03/11 07:44:42;;;;;;;1.55;1.00;;;6.70;99.90;;;;;;5004205;28;20650;-74
2023/03/11 07:47:10;;;;;;;1.05;0.90;;;6.70;99.90;;;;;;4987282;28;20560;-76
2023/03/11 07:49:39;;;;;;;1.88;1.00;;;6.70;99.90;;;;;;5003921;28;20229;-74
2023/03/11 07:52:08;;;;;;;3.20;1.65;;;6.80;99.90;;;;;;5004363;28;20196;-75
2023/03/11 07:54:37;;;;;;;1.15;1.00;;;6.70;99.90;;;;;;4988328;28;20334;-74
2023/03/11 07:57:07;;;;;;;1.20;1.10;;;6.70;99.90;;;;;;4992137;28;20214;-75
2023/03/11 07:59:35;;;;;;;0.80;0.60;;;6.80;99.90;;;;;;4985454;28;20222;-74
2023/03/11 08:02:04;;;;;;;1.15;1.00;;;6.80;99.90;;;;;;5000488;28;20741;-74
2023/03/11 08:04:32;;;;;;;1.10;0.80;;;6.80;99.90;;;;;;4985902;28;20219;-74
2023/03/11 08:07:01;;;;;;;1.83;0.90;;;6.80;99.90;;;;;;4977698;28;20269;-75
2023/03/11 08:09:29;;;;;;;1.80;1.30;;;6.80;99.90;;;;;;4983744;28;20596;-75
2023/03/11 08:11:59;;;;;;;1.77;1.30;;;6.80;99.90;;;;;;4996673;28;20198;-74
2023/03/11 08:14:28;;;;;;;1.80;0.88;;;6.80;99.90;;;;;;5001961;28;20253;-75
2023/03/11 08:16:56;;;;;;;1.27;0.90;;;6.80;99.90;;;;;;4990593;28;20246;-74
2023/03/11 08:19:24;;;;;;;1.55;0.77;;;6.80;99.90;;;;;;4986356;28;20302;-73
2023/03/11 08:21:53;;;;;;;1.00;0.85;;;6.80;99.90;;;;;;4985068;28;20234;-75
2023/03/11 08:24:21;;;;;;;3.60;0.85;;;6.80;99.90;;;;;;4977852;28;20238;-75
2023/03/11 08:26:50;;;;;;;1.23;1.13;;;6.80;99.90;;;;;;4994884;28;20315;-74
2023/03/11 08:29:19;;;;;;;2.08;0.93;;;6.80;99.90;;;;;;4991200;28;20571;-74
2023/03/11 08:31:48;;;;;;;1.55;0.70;;;6.80;99.90;;;;;;4979574;28;20206;-74
2023/03/11 08:34:16;;;;;;;1.73;1.30;;;6.80;99.90;;;;;;4987937;28;20323;-74
2023/03/11 08:36:45;;;;;;;1.75;1.25;;;6.80;99.90;;;;;;4989642;28;20247;-76
2023/03/11 08:39:16;;;;;;;0.98;0.82;;;6.80;99.90;;;;;;4983374;28;20237;-74
2023/03/11 08:41:44;;;;;;;1.63;0.80;;;6.80;99.90;;;;;;5003950;28;20192;-74
2023/03/11 08:44:13;;;;;;;3.38;0.85;;;6.80;99.90;;;;;;4993001;28;20255;-77
2023/03/11 08:46:43;;;;;;;1.60;0.90;;;6.80;99.90;;;;;;4989373;28;20223;-76
2023/03/11 08:49:11;;;;;;;1.30;1.20;;;6.80;99.90;;;;;;4996359;28;20238;-74
2023/03/11 08:51:40;;;;;;;1.00;0.80;;;6.80;99.90;;;;;;4982582;28;20292;-75
2023/03/11 08:54:09;;;;;;;1.13;1.05;;;6.90;99.90;;;;;;4988856;28;20225;-74
2023/03/11 08:56:37;;;;;;;1.00;0.88;;;6.90;99.90;;;;;;4982568;28;20731;-75
2023/03/11 08:59:07;;;;;;;1.35;0.80;;;6.90;99.90;;;;;;4993863;28;20216;-73
2023/03/11 09:01:35;;;;;;;1.10;1.00;;;6.90;99.90;;;;;;4978958;28;20200;-74
2023/03/11 09:04:06;;;;;;;1.65;1.10;;;6.90;99.90;;;;;;5000766;28;20221;-75
2023/03/11 09:06:34;;;;;;;1.10;0.85;;;6.90;99.90;;;;;;4972304;28;20191;-75
2023/03/11 09:09:03;;;;;;;1.08;0.98;;;6.90;99.90;;;;;;4998079;28;20279;-74
2023/03/11 09:11:31;;;;;;;2.58;0.98;;;6.90;99.90;;;;;;4992936;28;20213;-76
2023/03/11 09:14:00;;;;;;;1.77;0.85;;;6.90;99.90;;;;;;5000807;28;20227;-75
2023/03/11 09:16:28;;;;;;;2.10;1.30;;;6.90;99.90;;;;;;4992975;28;20216;-74
2023/03/11 09:18:59;;;;;;;1.20;0.90;;;6.90;99.90;;;;;;4998015;28;20760;-74
2023/03/11 09:21:29;;;;;;;1.00;0.90;;;6.90;99.90;;;;;;4999017;28;20203;-75
2023/03/11 09:23:57;;;;;;;1.17;0.93;;;6.90;99.90;;;;;;4982932;28;20267;-75
2023/03/11 09:26:26;;;;;;;1.40;0.85;;;6.90;99.90;;;;;;4990195;28;20724;-75
2023/03/11 09:28:54;;;;;;;1.00;0.60;;;6.90;99.90;;;;;;4989964;28;20283;-74
2023/03/11 09:31:24;;;;;;;1.08;0.70;;;6.90;99.90;;;;;;4985431;28;20719;-75
2023/03/11 09:33:54;;;;;;;1.00;0.82;;;6.90;99.90;;;;;;4990026;28;20230;-76
2023/03/11 09:36:23;;;;;;;1.63;0.95;;;6.90;99.90;;;;;;4991162;28;20204;-73
2023/03/11 09:38:53;;;;;;;1.40;0.70;;;6.90;99.90;;;;;;4994289;28;20221;-75
2023/03/11 09:41:39;;;;;;;1.40;0.68;;;6.90;99.90;;;;;;4978264;28;20274;-75
2023/03/11 09:44:31;;;;;;;1.05;0.95;;;6.90;99.90;;;;;;4998383;28;20228;-75
2023/03/11 09:47:24;;;;;;;1.17;0.70;;;6.90;99.90;;;;;;5001051;28;20294;-74
2023/03/11 09:50:25;;;;;;;1.15;1.00;;;6.90;99.90;;;;;;4996136;28;20217;-74
2023/03/11 09:53:14;;;;;;;0.90;0.80;;;6.90;99.90;;;;;;4988685;28;20202;-76
2023/03/11 09:55:47;;;;;;;1.73;0.98;;;6.90;99.90;;;;;;4986529;28;20197;-75
2023/03/11 09:58:20;;;;;;;1.55;0.80;;;6.90;99.90;;;;;;4980757;28;20233;-73
2023/03/11 10:00:51;;;;;;;1.95;1.10;;;6.90;99.90;;;;;;4980104;28;20302;-74
2023/03/11 10:03:30;;;;;;;1.38;0.98;;;6.90;99.90;;;;;;4993936;28;20676;-76
2023/03/11 10:06:08;;;;;;;1.83;0.90;;;6.90;99.90;;;;;;5001286;28;20201;-76
2023/03/11 10:08:43;;;;;;;1.23;0.70;;;6.90;99.90;;;;;;4999108;28;20241;-74
2023/03/11 10:11:26;;;;;;;1.60;0.90;;;6.90;99.90;;;;;;4981597;28;20247;-74
2023/03/11 10:14:05;;;;;;;1.20;0.90;;;6.90;99.90;;;;;;5000838;28;20221;-74
2023/03/11 10:16:45;;;;;;;3.60;0.77;;;6.90;99.90;;;;;;4996867;28;20679;-74
2023/03/11 10:19:24;;;;;;;2.30;1.10;;;6.80;99.90;;;;;;4977024;28;20702;-75
2023/03/11 10:22:01;;;;;;;2.05;1.00;;;6.80;99.90;;;;;;4972676;28;20709;-74
2023/03/11 10:24:57;;;;;;;1.85;0.95;;;6.80;99.90;;;;;;4993428;28;20232;-75
2023/03/11 10:27:33;;;;;;;1.30;0.80;;;6.80;99.90;;;;;;4976150;28;20225;-75
2023/03/11 10:30:09;;;;;;;1.38;0.75;;;6.80;99.90;;;;;;4995546;28;20238;-75
2023/03/11 10:32:43;;;;;;;0.70;0.68;;;6.80;99.90;;;;;;4993827;28;20196;-75
2023/03/11 10:35:18;;;;;;;0.90;0.63;;;6.80;99.90;;;;;;4997657;28;20292;-73
2023/03/11 10:37:52;;;;;;;1.33;0.70;;;6.80;99.90;;;;;;4967424;28;20633;-77
2023/03/11 10:40:28;;;;;;;1.50;0.80;;;6.80;99.90;;;;;;4981478;28;20235;-74
2023/03/11 10:43:01;;;;;;;1.10;0.80;;;6.80;99.90;;;;;;5000943;28;20283;-74
2023/03/11 10:45:36;;;;;;;0.80;0.80;;;6.80;99.90;;;;;;4980529;28;20207;-74
2023/03/11 10:48:09;;;;;;;0.98;0.77;;;6.80;99.90;;;;;;5000331;28;20251;-74
2023/03/11 10:50:50;;;;;;;0.90;0.60;;;6.80;99.90;;;;;;4999480;28;20687;-75
2023/03/11 10:53:20;;;;;;;1.23;0.95;;;6.80;99.90;;;;;;4997399;28;20299;-75
2023/03/11 10:55:50;;;;;;;0.95;0.80;;;6.80;99.90;;;;;;5001109;28;20191;-75
2023/03/11 10:58:22;;;;;;;1.27;0.93;;;6.80;99.90;;;;;;5000753;28;20313;-75
2023/03/11 11:01:03;;;;;;;1.63;1.10;;;6.80;99.90;;;;;;4996405;28;20658;-75
2023/03/11 11:03:32;;;;;;;1.98;0.70;;;6.80;99.90;;;;;;4988686;28;20724;-76
2023/03/11 11:06:03;;;;;;;0.70;0.60;;;6.80;99.90;;;;;;4992491;28;20625;-74
2023/03/11 11:08:33;;;;;;;1.73;0.98;;;6.80;99.90;;;;;;4997009;28;20232;-74
2023/03/11 11:11:04;;;;;;;0.70;0.60;;;6.80;99.90;;;;;;4992103;28;20243;-74
2023/03/11 11:13:34;;;;;;;1.60;0.82;;;6.80;99.90;;;;;;4993957;28;20238;-74
2023/03/11 11:16:05;;;;;;;1.30;1.10;;;6.80;99.90;;;;;;4985770;28;20222;-74
2023/03/11 11:18:36;;;;;;;5.95;1.35;;;6.80;99.90;;;;;;4980019;28;20239;-74
2023/03/11 11:21:06;;;;;;;1.58;0.98;;;6.70;99.90;;;;;;4999583;28;20215;-75
2023/03/11 11:23:40;;;;;;;1.80;0.80;;;6.70;99.90;;;;;;4981559;28;20249;-74
2023/03/11 11:26:17;;;;;;;2.55;0.88;;;6.70;99.90;;;;;;4981033;28;20213;-74
2023/03/11 11:28:48;;;;;;;0.90;0.73;;;6.70;99.90;;;;;;4992906;28;20283;-74
2023/03/11 11:31:23;;;;;;;0.95;0.60;;;6.80;99.90;;;;;;4976626;28;20599;-74
2023/03/11 11:33:53;;;;;;;1.27;0.63;;;6.70;99.90;;;;;;4980929;28;20224;-68
2023/03/11 11:36:25;;;;;;;2.72;1.00;;;6.70;99.90;;;;;;4996124;28;20196;-68
2023/03/11 11:38:55;;;;;;;1.48;0.50;;;6.70;99.90;;;;;;4990105;28;20221;-67
2023/03/11 11:41:26;;;;;;;1.50;0.98;;;6.70;99.90;;;;;;4983262;28;20224;-68
2023/03/11 11:43:58;;;;;;;3.05;1.20;;;6.70;99.90;;;;;;4983520;28;20253;-69
2023/03/11 11:46:31;;;;;;;1.55;0.90;;;6.70;99.90;;;;;;4983287;28;20228;-67
2023/03/11 11:49:11;;;;;;;1.20;0.73;;;6.70;99.90;;;;;;4986193;28;20227;-68
2023/03/11 11:51:48;;;;;;;1.33;1.02;;;6.80;99.90;;;;;;4978087;28;20704;-66
2023/03/11 11:54:23;;;;;;;0.80;0.75;;;6.70;99.90;;;;;;4990493;28;20735;-67
2023/03/11 11:56:51;;;;;;;0.90;0.70;;;6.70;99.90;;;;;;4994504;28;20248;-67
2023/03/11 11:59:22;;;;;;;1.88;1.00;;;6.70;99.90;;;;;;4982433;28;20257;-66
2023/03/11 12:02:03;;;;;;;1.70;0.77;;;6.70;99.90;;;;;;4998062;28;20700;-67
2023/03/11 12:04:55;;;;;;;1.30;0.80;;;6.70;99.90;;;;;;4975178;28;20252;-67
2023/03/11 12:07:38;;;;;;;1.85;0.68;;;6.70;99.90;;;;;;4980180;28;20228;-67
2023/03/11 12:10:23;;;;;;;2.47;1.00;;;6.70;99.90;;;;;;4998155;28;20565;-69
2023/03/11 12:13:18;;;;;;;2.25;0.77;;;6.70;99.90;;;;;;4992519;28;20202;-76
2023/03/11 12:15:52;;;;;;;4.55;1.05;;;6.70;99.90;;;;;;4968438;28;20528;-75
2023/03/11 12:18:28;;;;;;;2.13;0.98;;;6.70;99.90;;;;;;4978873;28;20233;-66
2023/03/11 12:20:57;;;;;;;2.13;1.02;;;6.70;99.90;;;;;;4998022;28;20215;-68
2023/03/11 12:23:37;;;;;;;1.88;0.88;;;6.70;99.90;;;;;;4994866;28;20260;-67
2023/03/11 12:26:16;;;;;;;4.63;0.90;;;6.70;99.90;;;;;;4988109;28;20211;-66
2023/03/11 12:28:50;;;;;;;5.43;2.22;;;6.70;99.90;;;;;;5002891;28;20237;-66
2023/03/11 12:31:23;;;;;;;1.67;0.70;;;6.70;99.90;;;;;;4978807;28;20281;-67
2023/03/11 12:33:56;;;;;;;1.65;0.70;;;6.70;99.90;;;;;;4980716;28;20676;-69
2023/03/11 12:36:30;;;;;;;4.20;1.10;;;6.70;99.90;;;;;;4988908;28;20208;-68
2023/03/11 12:39:01;;;;;;;1.00;0.77;;;6.70;99.90;;;;;;5001229;28;20245;-66
2023/03/11 12:41:38;;;;;;;3.78;0.80;;;6.70;99.90;;;;;;4984785;28;20767;-67
2023/03/11 12:44:23;;;;;;;2.17;0.80;;;6.70;99.90;;;;;;4997663;28;20283;-66
2023/03/11 12:47:16;;;;;;;2.92;0.93;;;6.70;99.90;;;;;;4981226;28;20214;-66
2023/03/11 12:49:46;;;;;;;2.05;1.05;;;6.70;99.90;;;;;;4998439;28;20646;-67
2023/03/11 12:52:50;;;;;;;2.60;1.50;;;6.70;99.90;;;;;;5003757;28;20241;-67
2023/03/11 12:55:38;;;;;;;1.05;0.52;;;6.70;99.90;;;;;;4978968;28;20413;-67
2023/03/11 12:58:49;;;;;;;2.50;1.20;;;6.70;99.90;;;;;;5001663;28;20229;-66
2023/03/11 13:01:51;;;;;;;1.17;0.82;;;6.70;99.90;;;;;;5000733;28;20217;-68
2023/03/11 13:04:36;;;;;;;1.65;0.80;;;6.70;99.90;;;;;;5000414;28;20283;-66
2023/03/11 13:07:29;;;;;;;1.83;0.93;;;6.70;99.90;;;;;;5000774;28;20248;-68
2023/03/11 13:10:10;;;;;;;1.45;0.90;;;6.70;99.90;;;;;;4977310;28;20234;-68
2023/03/11 13:12:41;;;;;;;1.80;0.80;;;6.70;99.90;;;;;;4992811;28;20196;-68
2023/03/11 13:15:30;;;;;;;1.45;0.70;;;6.70;99.90;;;;;;4980999;28;20300;-66
2023/03/11 13:18:00;;;;;;;1.08;0.60;;;6.70;99.90;;;;;;4973831;28;20234;-67
2023/03/11 13:21:01;;;;;;;1.00;0.57;;;6.70;99.90;;;;;;4981520;28;20652;-69
2023/03/11 13:23:33;;;;;;;1.20;0.50;;;6.70;99.90;;;;;;5003212;28;20588;-66